Locust Hill, Kentucky
Current Conditions -  °F | °C
As of 9:58 AM on Sunday 21 Dec 2014 (Local Time) from KFTK Reporting Station
Clear Clear  
Wind Chill: 25°   Ceiling: Unl
Heat Index: 33°   Visibility: 10mi
Dew Point: 28°   Wind: 10mph
Humidity: 81%   Direction: 80°E
Pressure: 30.25"   Gusts: NA
Location:  37.7463°N, 86.3536°W
Report Text: KFTK 211558Z AUTO 08009KT 10SM CLR 01/M02 A3025 RMK AO2 SLP254 T00061023
Loading
Personal Weather Stations






























Interactive Weather Map New forecast layout! Learn more

10-Day Weather Forecast

Advertisements
Track Severe Weather on mobile